sensor_id;sensor_type;location;lat;lon;timestamp;pressure;altitude;pressure_sealevel;temperature;humidity
60087;BME280;45960;53.630;55.972;2023-04-21T00:00:34;100377.44;;;7.25;43.03
60087;BME280;45960;53.630;55.972;2023-04-21T00:01:35;100369.47;;;7.25;43.26
60087;BME280;45960;53.630;55.972;2023-04-21T00:02:36;100371.38;;;7.23;43.27
60087;BME280;45960;53.630;55.972;2023-04-21T00:03:41;100369.63;;;7.22;43.28
60087;BME280;45960;53.630;55.972;2023-04-21T00:04:42;100370.56;;;7.21;43.45
60087;BME280;45960;53.630;55.972;2023-04-21T00:05:45;100369.63;;;7.22;43.28
60087;BME280;45960;53.630;55.972;2023-04-21T00:06:46;100362.59;;;7.21;43.54
60087;BME280;45960;53.630;55.972;2023-04-21T00:07:47;100359.16;;;7.19;43.36
60087;BME280;45960;53.630;55.972;2023-04-21T00:08:49;100361.81;;;7.19;43.61
60087;BME280;45960;53.630;55.972;2023-04-21T00:09:50;100362.75;;;7.18;43.58
60087;BME280;45960;53.630;55.972;2023-04-21T00:10:51;100357.44;;;7.18;43.56
60087;BME280;45960;53.630;55.972;2023-04-21T00:11:52;100362.75;;;7.18;43.47
60087;BME280;45960;53.630;55.972;2023-04-21T00:12:53;100357.44;;;7.18;43.52
60087;BME280;45960;53.630;55.972;2023-04-21T00:13:54;100350.44;;;7.17;43.42
60087;BME280;45960;53.630;55.972;2023-04-21T00:14:56;100355.75;;;7.17;43.30
60087;BME280;45960;53.630;55.972;2023-04-21T00:15:57;100357.44;;;7.18;43.18
60087;BME280;45960;53.630;55.972;2023-04-21T00:16:58;100328.91;;;7.04;43.15
60087;BME280;45960;53.630;55.972;2023-04-21T00:18:00;100355.59;;;7.20;43.09
60087;BME280;45960;53.630;55.972;2023-04-21T00:19:01;100346.97;;;7.15;42.96
60087;BME280;45960;53.630;55.972;2023-04-21T00:20:06;100362.59;;;7.21;42.80
60087;BME280;45960;53.630;55.972;2023-04-21T00:21:09;100359.00;;;7.22;42.84
60087;BME280;45960;53.630;55.972;2023-04-21T00:22:11;100359.78;;;7.24;42.80
60087;BME280;45960;53.630;55.972;2023-04-21T00:23:15;100358.84;;;7.25;42.89
60087;BME280;45960;53.630;55.972;2023-04-21T00:24:16;100358.84;;;7.25;42.80
60087;BME280;45960;53.630;55.972;2023-04-21T00:25:17;100356.97;;;7.27;42.86
60087;BME280;45960;53.630;55.972;2023-04-21T00:26:18;100351.91;;;7.23;42.79
60087;BME280;45960;53.630;55.972;2023-04-21T00:27:22;100364.03;;;7.28;42.79
60087;BME280;45960;53.630;55.972;2023-04-21T00:28:23;100358.72;;;7.28;42.54
60087;BME280;45960;53.630;55.972;2023-04-21T00:29:24;100360.59;;;7.26;42.65
60087;BME280;45960;53.630;55.972;2023-04-21T00:30:25;100357.84;;;7.28;42.63
60087;BME280;45960;53.630;55.972;2023-04-21T00:31:27;100315.69;;;7.03;42.61
60087;BME280;45960;53.630;55.972;2023-04-21T00:32:28;100357.94;;;7.26;42.62
60087;BME280;45960;53.630;55.972;2023-04-21T00:33:31;100353.41;;;7.28;42.56
60087;BME280;45960;53.630;55.972;2023-04-21T00:34:33;100343.06;;;7.22;42.76
60087;BME280;45960;53.630;55.972;2023-04-21T00:35:34;100358.72;;;7.28;42.69
60087;BME280;45960;53.630;55.972;2023-04-21T00:36:35;100354.31;;;7.27;42.90
60087;BME280;45960;53.630;55.972;2023-04-21T00:37:36;100353.41;;;7.28;42.96
60087;BME280;45960;53.630;55.972;2023-04-21T00:38:37;100362.28;;;7.27;42.76
60087;BME280;45960;53.630;55.972;2023-04-21T00:39:39;100353.53;;;7.25;42.80
60087;BME280;45960;53.630;55.972;2023-04-21T00:40:40;100346.66;;;7.21;42.70
60087;BME280;45960;53.630;55.972;2023-04-21T00:41:41;100344.78;;;7.23;42.58
60087;BME280;45960;53.630;55.972;2023-04-21T00:42:43;100356.19;;;7.25;43.03
60087;BME280;45960;53.630;55.972;2023-04-21T00:44:03;100354.47;;;7.24;42.83
60087;BME280;45960;53.630;55.972;2023-04-21T00:45:06;100350.13;;;7.23;42.67
60087;BME280;45960;53.630;55.972;2023-04-21T00:46:07;100357.13;;;7.24;42.93
60087;BME280;45960;53.630;55.972;2023-04-21T00:47:08;100333.91;;;7.10;42.96
60087;BME280;45960;53.630;55.972;2023-04-21T00:48:10;100345.66;;;7.24;43.05
60087;BME280;45960;53.630;55.972;2023-04-21T00:49:12;100358.84;;;7.25;43.27
60087;BME280;45960;53.630;55.972;2023-04-21T00:50:13;100353.53;;;7.25;43.22
60087;BME280;45960;53.630;55.972;2023-04-21T00:51:15;100358.84;;;7.25;43.46
60087;BME280;45960;53.630;55.972;2023-04-21T00:52:17;100356.13;;;7.27;43.45
60087;BME280;45960;53.630;55.972;2023-04-21T00:53:19;100354.31;;;7.27;43.59
60087;BME280;45960;53.630;55.972;2023-04-21T00:54:22;100356.13;;;7.27;43.33
60087;BME280;45960;53.630;55.972;2023-04-21T00:55:24;100355.13;;;7.29;43.54
60087;BME280;45960;53.630;55.972;2023-04-21T00:56:27;100354.25;;;7.29;43.37
60087;BME280;45960;53.630;55.972;2023-04-21T00:57:30;100348.94;;;7.29;43.27
60087;BME280;45960;53.630;55.972;2023-04-21T00:58:32;100355.13;;;7.29;43.38
60087;BME280;45960;53.630;55.972;2023-04-21T00:59:34;100354.25;;;7.29;43.29
60087;BME280;45960;53.630;55.972;2023-04-21T01:00:37;100351.50;;;7.30;43.26
60087;BME280;45960;53.630;55.972;2023-04-21T01:01:39;100351.50;;;7.30;43.24
60087;BME280;45960;53.630;55.972;2023-04-21T01:02:41;100354.16;;;7.30;43.26
60087;BME280;45960;53.630;55.972;2023-04-21T01:03:42;100349.63;;;7.32;43.39
60087;BME280;45960;53.630;55.972;2023-04-21T01:04:44;100350.50;;;7.33;43.40
60087;BME280;45960;53.630;55.972;2023-04-21T01:05:45;100345.19;;;7.33;43.66
60087;BME280;45960;53.630;55.972;2023-04-21T01:06:46;100356.66;;;7.33;43.25
60087;BME280;45960;53.630;55.972;2023-04-21T01:07:48;100346.03;;;7.33;43.68
60087;BME280;45960;53.630;55.972;2023-04-21T01:08:51;100348.69;;;7.33;43.49
60087;BME280;45960;53.630;55.972;2023-04-21T01:09:53;100349.63;;;7.32;43.41
60087;BME280;45960;53.630;55.972;2023-04-21T01:10:54;100350.44;;;7.34;43.32
60087;BME280;45960;53.630;55.972;2023-04-21T01:12:10;100342.47;;;7.34;43.40
60087;BME280;45960;53.630;55.972;2023-04-21T01:13:11;100346.03;;;7.33;43.24
60087;BME280;45960;53.630;55.972;2023-04-21T01:14:12;100345.13;;;7.34;43.31
60087;BME280;45960;53.630;55.972;2023-04-21T01:15:15;100349.56;;;7.34;43.41
60087;BME280;45960;53.630;55.972;2023-04-21T01:16:17;100350.44;;;7.34;43.49
60087;BME280;45960;53.630;55.972;2023-04-21T01:17:18;100353.00;;;7.36;43.52
60087;BME280;45960;53.630;55.972;2023-04-21T01:18:21;100348.47;;;7.38;43.50
60087;BME280;45960;53.630;55.972;2023-04-21T01:19:23;100344.97;;;7.37;43.31
60087;BME280;45960;53.630;55.972;2023-04-21T01:20:24;100347.44;;;7.40;43.54
60087;BME280;45960;53.630;55.972;2023-04-21T01:21:26;100353.63;;;7.41;43.23
60087;BME280;45960;53.630;55.972;2023-04-21T01:22:29;100359.72;;;7.43;43.38
60087;BME280;45960;53.630;55.972;2023-04-21T01:23:31;100354.63;;;7.38;43.46
60087;BME280;45960;53.630;55.972;2023-04-21T01:24:36;100349.88;;;7.45;43.73
60087;BME280;45960;53.630;55.972;2023-04-21T01:25:37;100349.00;;;7.45;43.44
60087;BME280;45960;53.630;55.972;2023-04-21T01:26:38;100351.59;;;7.46;43.41
60087;BME280;45960;53.630;55.972;2023-04-21T01:27:39;100354.31;;;7.45;43.30
60087;BME280;45960;53.630;55.972;2023-04-21T01:28:40;100356.91;;;7.46;43.52
60087;BME280;45960;53.630;55.972;2023-04-21T01:29:42;100350.75;;;7.46;43.70
60087;BME280;45960;53.630;55.972;2023-04-21T01:30:43;100353.41;;;7.46;43.93
60087;BME280;45960;53.630;55.972;2023-04-21T01:31:44;100356.06;;;7.46;43.87
60087;BME280;45960;53.630;55.972;2023-04-21T01:32:47;100355.22;;;7.45;43.63
60087;BME280;45960;53.630;55.972;2023-04-21T01:33:48;100356.91;;;7.46;43.88
60087;BME280;45960;53.630;55.972;2023-04-21T01:34:50;100359.47;;;7.48;43.86
60087;BME280;45960;53.630;55.972;2023-04-21T01:35:52;100350.59;;;7.49;43.84
60087;BME280;45960;53.630;55.972;2023-04-21T01:36:53;100356.69;;;7.51;43.65
60087;BME280;45960;53.630;55.972;2023-04-21T01:37:57;100354.03;;;7.51;43.70
60087;BME280;45960;53.630;55.972;2023-04-21T01:38:58;100350.41;;;7.52;43.71
60087;BME280;45960;53.630;55.972;2023-04-21T01:40:02;100359.03;;;7.57;43.67
60087;BME280;45960;53.630;55.972;2023-04-21T01:41:08;100356.28;;;7.58;43.48
60087;BME280;45960;53.630;55.972;2023-04-21T01:42:11;100348.41;;;7.57;43.70
60087;BME280;45960;53.630;55.972;2023-04-21T01:43:14;100356.03;;;7.63;43.73
60087;BME280;45960;53.630;55.972;2023-04-21T01:44:16;100360.25;;;7.67;43.54
60087;BME280;45960;53.630;55.972;2023-04-21T01:45:17;100358.38;;;7.69;43.36
60087;BME280;45960;53.630;55.972;2023-04-21T01:46:19;100358.22;;;7.72;43.42
60087;BME280;45960;53.630;55.972;2023-04-21T01:47:22;100359.78;;;7.76;43.06
60087;BME280;45960;53.630;55.972;2023-04-21T01:48:23;100357.88;;;7.78;43.09
60087;BME280;45960;53.630;55.972;2023-04-21T01:49:24;100352.44;;;7.81;42.92
60087;BME280;45960;53.630;55.972;2023-04-21T01:50:25;100352.28;;;7.84;42.71
60087;BME280;45960;53.630;55.972;2023-04-21T01:51:26;100360.84;;;7.90;42.46
60087;BME280;45960;53.630;55.972;2023-04-21T01:52:28;100360.72;;;7.93;42.41
60087;BME280;45960;53.630;55.972;2023-04-21T01:53:29;100363.97;;;7.98;42.27
60087;BME280;45960;53.630;55.972;2023-04-21T01:54:30;100360.38;;;7.99;42.03
60087;BME280;45960;53.630;55.972;2023-04-21T01:55:31;100355.56;;;8.05;41.87
60087;BME280;45960;53.630;55.972;2023-04-21T01:56:33;100370.34;;;8.11;41.75
60087;BME280;45960;53.630;55.972;2023-04-21T01:57:34;100364.88;;;8.14;41.67
60087;BME280;45960;53.630;55.972;2023-04-21T01:58:35;100364.69;;;8.17;41.58
60087;BME280;45960;53.630;55.972;2023-04-21T01:59:37;100363.69;;;8.20;41.53
60087;BME280;45960;53.630;55.972;2023-04-21T02:00:38;100355.63;;;8.21;41.51
60087;BME280;45960;53.630;55.972;2023-04-21T02:01:39;100361.56;;;8.26;41.33
60087;BME280;45960;53.630;55.972;2023-04-21T02:02:40;100362.31;;;8.28;41.40
60087;BME280;45960;53.630;55.972;2023-04-21T02:03:41;100357.72;;;8.32;41.08
60087;BME280;45960;53.630;55.972;2023-04-21T02:04:42;100355.72;;;8.36;41.16
60087;BME280;45960;53.630;55.972;2023-04-21T02:05:43;100357.28;;;8.40;41.29
60087;BME280;45960;53.630;55.972;2023-04-21T02:06:45;100362.44;;;8.43;41.34
60087;BME280;45960;53.630;55.972;2023-04-21T02:07:46;100357.72;;;8.48;41.28
60087;BME280;45960;53.630;55.972;2023-04-21T02:08:48;100350.53;;;8.50;41.27
60087;BME280;45960;53.630;55.972;2023-04-21T02:09:49;100357.56;;;8.51;40.94
60087;BME280;45960;53.630;55.972;2023-04-21T02:10:50;100356.28;;;8.58;40.89
60087;BME280;45960;53.630;55.972;2023-04-21T02:11:51;100364.09;;;8.61;40.77
60087;BME280;45960;53.630;55.972;2023-04-21T02:12:52;100354.22;;;8.63;40.68
60087;BME280;45960;53.630;55.972;2023-04-21T02:13:54;100361.88;;;8.69;40.78
60087;BME280;45960;53.630;55.972;2023-04-21T02:14:55;100357.31;;;8.71;40.62
60087;BME280;45960;53.630;55.972;2023-04-21T02:15:56;100350.00;;;8.75;40.42
60087;BME280;45960;53.630;55.972;2023-04-21T02:16:57;100350.69;;;8.79;40.57
60087;BME280;45960;53.630;55.972;2023-04-21T02:17:59;100355.84;;;8.82;40.77
60087;BME280;45960;53.630;55.972;2023-04-21T02:19:00;100349.47;;;8.84;40.62
60087;BME280;45960;53.630;55.972;2023-04-21T02:20:02;100359.97;;;8.87;40.76
60087;BME280;45960;53.630;55.972;2023-04-21T02:21:05;100346.63;;;8.87;40.76
60087;BME280;45960;53.630;55.972;2023-04-21T02:22:06;100348.09;;;8.93;40.40
60087;BME280;45960;53.630;55.972;2023-04-21T02:23:08;100355.16;;;8.94;40.44
60087;BME280;45960;53.630;55.972;2023-04-21T02:24:09;100350.69;;;8.94;40.50
60087;BME280;45960;53.630;55.972;2023-04-21T02:25:10;100347.00;;;8.97;40.18
60087;BME280;45960;53.630;55.972;2023-04-21T02:26:13;100353.09;;;8.99;40.33
60087;BME280;45960;53.630;55.972;2023-04-21T02:27:14;100349.47;;;9.00;40.39
60087;BME280;45960;53.630;55.972;2023-04-21T02:28:15;100351.19;;;9.01;39.99
60087;BME280;45960;53.630;55.972;2023-04-21T02:29:16;100353.78;;;9.03;39.90
60087;BME280;45960;53.630;55.972;2023-04-21T02:30:17;100351.00;;;9.04;39.92
60087;BME280;45960;53.630;55.972;2023-04-21T02:31:18;100350.16;;;9.04;40.04
60087;BME280;45960;53.630;55.972;2023-04-21T02:32:19;100348.09;;;9.09;39.87
60087;BME280;45960;53.630;55.972;2023-04-21T02:33:20;100354.09;;;9.12;39.98
60087;BME280;45960;53.630;55.972;2023-04-21T02:34:22;100346.88;;;9.14;40.06
60087;BME280;45960;53.630;55.972;2023-04-21T02:35:23;100348.56;;;9.15;39.76
60087;BME280;45960;53.630;55.972;2023-04-21T02:36:24;100349.53;;;9.14;39.54
60087;BME280;45960;53.630;55.972;2023-04-21T02:37:26;100355.81;;;9.13;39.30
60087;BME280;45960;53.630;55.972;2023-04-21T02:38:27;100359.06;;;9.18;39.09
60087;BME280;45960;53.630;55.972;2023-04-21T02:39:28;100351.84;;;9.21;39.20
60087;BME280;45960;53.630;55.972;2023-04-21T02:40:30;100356.97;;;9.24;38.80
60087;BME280;45960;53.630;55.972;2023-04-21T02:41:31;100363.03;;;9.27;38.91
60087;BME280;45960;53.630;55.972;2023-04-21T02:42:35;100354.72;;;9.32;38.71
60087;BME280;45960;53.630;55.972;2023-04-21T02:43:36;100359.03;;;9.34;38.65
60087;BME280;45960;53.630;55.972;2023-04-21T02:44:37;100353.50;;;9.37;38.63
60087;BME280;45960;53.630;55.972;2023-04-21T02:45:38;100353.31;;;9.40;38.37
60087;BME280;45960;53.630;55.972;2023-04-21T02:46:39;100358.41;;;9.45;38.37
60087;BME280;45960;53.630;55.972;2023-04-21T02:47:41;100357.25;;;9.49;38.39
60087;BME280;45960;53.630;55.972;2023-04-21T02:48:42;100346.78;;;9.46;38.15
60087;BME280;45960;53.630;55.972;2023-04-21T02:49:43;100354.97;;;9.57;38.15
60087;BME280;45960;53.630;55.972;2023-04-21T02:50:46;100346.06;;;9.58;38.22
60087;BME280;45960;53.630;55.972;2023-04-21T02:51:47;100358.91;;;9.66;37.94
60087;BME280;45960;53.630;55.972;2023-04-21T02:52:48;100359.41;;;9.73;38.09
60087;BME280;45960;53.630;55.972;2023-04-21T02:53:49;100356.44;;;9.77;37.87
60087;BME280;45960;53.630;55.972;2023-04-21T02:54:50;100354.38;;;9.82;37.97
60087;BME280;45960;53.630;55.972;2023-04-21T02:55:52;100350.47;;;9.88;37.68
60087;BME280;45960;53.630;55.972;2023-04-21T02:56:53;100357.22;;;9.94;37.44
60087;BME280;45960;53.630;55.972;2023-04-21T02:57:54;100355.81;;;10.02;37.76
60087;BME280;45960;53.630;55.972;2023-04-21T02:58:57;100357.34;;;10.06;37.23
60087;BME280;45960;53.630;55.972;2023-04-21T02:59:58;100349.91;;;10.12;37.21
60087;BME280;45960;53.630;55.972;2023-04-21T03:00:59;100351.22;;;10.19;37.06
60087;BME280;45960;53.630;55.972;2023-04-21T03:02:01;100345.50;;;10.25;36.98
60087;BME280;45960;53.630;55.972;2023-04-21T03:03:04;100347.06;;;10.29;37.00
60087;BME280;45960;53.630;55.972;2023-04-21T03:04:06;100348.38;;;10.36;36.83
60087;BME280;45960;53.630;55.972;2023-04-21T03:05:07;100348.22;;;10.39;36.69
60087;BME280;45960;53.630;55.972;2023-04-21T03:06:08;100339.03;;;10.43;36.68
60087;BME280;45960;53.630;55.972;2023-04-21T03:07:13;100345.03;;;10.47;36.64
60087;BME280;45960;53.630;55.972;2023-04-21T03:08:14;100347.44;;;10.51;36.49
60087;BME280;45960;53.630;55.972;2023-04-21T03:09:15;100344.47;;;10.56;36.62
60087;BME280;45960;53.630;55.972;2023-04-21T03:10:16;100347.59;;;10.63;36.39
60087;BME280;45960;53.630;55.972;2023-04-21T03:11:17;100343.75;;;10.67;36.37
60087;BME280;45960;53.630;55.972;2023-04-21T03:12:19;100345.00;;;10.75;36.52
60087;BME280;45960;53.630;55.972;2023-04-21T03:13:20;100338.28;;;10.83;36.13
60087;BME280;45960;53.630;55.972;2023-04-21T03:14:24;100332.44;;;10.90;36.05
60087;BME280;45960;53.630;55.972;2023-04-21T03:15:25;100341.66;;;10.99;35.92
60087;BME280;45960;53.630;55.972;2023-04-21T03:16:27;100343.84;;;11.07;35.94
60087;BME280;45960;53.630;55.972;2023-04-21T03:17:29;100344.41;;;11.12;35.76
60087;BME280;45960;53.630;55.972;2023-04-21T03:18:33;100335.97;;;11.18;35.41
60087;BME280;45960;53.630;55.972;2023-04-21T03:19:35;100339.06;;;11.25;35.41
60087;BME280;45960;53.630;55.972;2023-04-21T03:20:36;100343.28;;;11.29;35.55
60087;BME280;45960;53.630;55.972;2023-04-21T03:21:37;100340.28;;;11.33;35.45
60087;BME280;45960;53.630;55.972;2023-04-21T03:22:38;100340.81;;;11.38;35.36
60087;BME280;45960;53.630;55.972;2023-04-21T03:23:40;100334.13;;;11.46;35.48
60087;BME280;45960;53.630;55.972;2023-04-21T03:24:41;100337.31;;;11.51;35.54
60087;BME280;45960;53.630;55.972;2023-04-21T03:25:42;100336.91;;;11.57;35.18
60087;BME280;45960;53.630;55.972;2023-04-21T03:26:43;100341.84;;;11.63;35.26
60087;BME280;45960;53.630;55.972;2023-04-21T03:27:44;100340.56;;;11.69;35.20
60087;BME280;45960;53.630;55.972;2023-04-21T03:28:45;100340.13;;;11.75;35.08
60087;BME280;45960;53.630;55.972;2023-04-21T03:29:47;100344.19;;;11.80;34.82
60087;BME280;45960;53.630;55.972;2023-04-21T03:30:48;100341.22;;;11.85;34.85
60087;BME280;45960;53.630;55.972;2023-04-21T03:31:49;100344.25;;;11.93;34.74
60087;BME280;45960;53.630;55.972;2023-04-21T03:32:50;100342.28;;;11.95;34.52
60087;BME280;45960;53.630;55.972;2023-04-21T03:33:52;100339.41;;;11.98;34.42
60087;BME280;45960;53.630;55.972;2023-04-21T03:34:53;100352.16;;;11.95;34.70
60087;BME280;45960;53.630;55.972;2023-04-21T03:35:54;100338.78;;;11.95;34.79
60087;BME280;45960;53.630;55.972;2023-04-21T03:36:55;100342.97;;;11.99;34.87
60087;BME280;45960;53.630;55.972;2023-04-21T03:37:56;100337.16;;;12.05;34.83
60087;BME280;45960;53.630;55.972;2023-04-21T03:38:57;100345.53;;;12.13;34.66
60087;BME280;45960;53.630;55.972;2023-04-21T03:39:58;100342.28;;;12.21;34.72
60087;BME280;45960;53.630;55.972;2023-04-21T03:41:02;100349.56;;;12.31;34.43
60087;BME280;45960;53.630;55.972;2023-04-21T03:42:04;100336.47;;;12.40;34.50
60087;BME280;45960;53.630;55.972;2023-04-21T03:43:05;100344.06;;;12.46;34.33
60087;BME280;45960;53.630;55.972;2023-04-21T03:44:07;100345.44;;;12.51;34.01
60087;BME280;45960;53.630;55.972;2023-04-21T03:45:08;100341.38;;;12.59;34.05
60087;BME280;45960;53.630;55.972;2023-04-21T03:46:20;100349.47;;;12.70;33.98
60087;BME280;45960;53.630;55.972;2023-04-21T03:47:22;100339.16;;;12.76;33.67
60087;BME280;45960;53.630;55.972;2023-04-21T03:48:23;100345.56;;;12.87;33.60
60087;BME280;45960;53.630;55.972;2023-04-21T03:49:24;100343.16;;;12.95;33.77
60087;BME280;45960;53.630;55.972;2023-04-21T03:50:25;100348.06;;;13.01;33.43
60087;BME280;45960;53.630;55.972;2023-04-21T03:51:26;100342.25;;;13.07;33.40
60087;BME280;45960;53.630;55.972;2023-04-21T03:52:27;100340.06;;;13.12;33.26
60087;BME280;45960;53.630;55.972;2023-04-21T03:53:28;100345.09;;;13.17;33.05
60087;BME280;45960;53.630;55.972;2023-04-21T03:54:29;100335.75;;;13.23;33.25
60087;BME280;45960;53.630;55.972;2023-04-21T03:55:31;100335.31;;;13.29;33.21
60087;BME280;45960;53.630;55.972;2023-04-21T03:56:32;100338.50;;;13.34;32.92
60087;BME280;45960;53.630;55.972;2023-04-21T03:57:33;100343.28;;;13.41;33.05
60087;BME280;45960;53.630;55.972;2023-04-21T03:58:34;100333.69;;;13.50;33.24
60087;BME280;45960;53.630;55.972;2023-04-21T03:59:35;100333.22;;;13.56;33.11
60087;BME280;45960;53.630;55.972;2023-04-21T04:00:36;100337.13;;;13.63;32.75
60087;BME280;45960;53.630;55.972;2023-04-21T04:01:37;100328.47;;;13.71;32.95
60087;BME280;45960;53.630;55.972;2023-04-21T04:02:39;100327.66;;;13.82;32.77
60087;BME280;45960;53.630;55.972;2023-04-21T04:03:40;100335.97;;;13.90;32.57
60087;BME280;45960;53.630;55.972;2023-04-21T04:04:41;100323.88;;;13.96;32.64
60087;BME280;45960;53.630;55.972;2023-04-21T04:05:42;100333.53;;;13.98;32.42
60087;BME280;45960;53.630;55.972;2023-04-21T04:06:43;100335.13;;;14.01;32.07
60087;BME280;45960;53.630;55.972;2023-04-21T04:07:44;100329.59;;;14.02;32.11
60087;BME280;45960;53.630;55.972;2023-04-21T04:08:45;100328.50;;;14.05;31.93
60087;BME280;45960;53.630;55.972;2023-04-21T04:09:46;100329.13;;;14.08;32.10
60087;BME280;45960;53.630;55.972;2023-04-21T04:10:47;100331.81;;;14.08;31.63
60087;BME280;45960;53.630;55.972;2023-04-21T04:11:48;100325.47;;;14.09;31.74
60087;BME280;45960;53.630;55.972;2023-04-21T04:12:49;100330.34;;;14.16;31.62
60087;BME280;45960;53.630;55.972;2023-04-21T04:13:50;100332.06;;;14.17;31.60
60087;BME280;45960;53.630;55.972;2023-04-21T04:14:52;100325.97;;;14.15;31.09
60087;BME280;45960;53.630;55.972;2023-04-21T04:15:52;100330.59;;;14.13;31.28
60087;BME280;45960;53.630;55.972;2023-04-21T04:16:54;100330.59;;;14.13;31.12
60087;BME280;45960;53.630;55.972;2023-04-21T04:17:55;100332.06;;;14.17;30.94
60087;BME280;45960;53.630;55.972;2023-04-21T04:18:56;100326.22;;;14.23;31.11
60087;BME280;45960;53.630;55.972;2023-04-21T04:19:57;100334.50;;;14.31;30.98
60087;BME280;45960;53.630;55.972;2023-04-21T04:21:04;100328.66;;;14.37;30.86
60087;BME280;45960;53.630;55.972;2023-04-21T04:22:05;100330.09;;;14.41;30.92
60087;BME280;45960;53.630;55.972;2023-04-21T04:23:07;100329.59;;;14.47;30.96
60087;BME280;45960;53.630;55.972;2023-04-21T04:24:08;100332.56;;;14.55;30.93
60087;BME280;45960;53.630;55.972;2023-04-21T04:25:10;100319.34;;;14.64;30.49
60087;BME280;45960;53.630;55.972;2023-04-21T04:26:14;100327.66;;;14.72;30.47
60087;BME280;45960;53.630;55.972;2023-04-21T04:27:15;100328.34;;;14.85;30.16
60087;BME280;45960;53.630;55.972;2023-04-21T04:28:17;100321.63;;;14.91;30.03
60087;BME280;45960;53.630;55.972;2023-04-21T04:29:18;100322.94;;;14.96;29.87
60087;BME280;45960;53.630;55.972;2023-04-21T04:30:20;100326.56;;;15.07;29.76
60087;BME280;45960;53.630;55.972;2023-04-21T04:31:21;100332.63;;;15.20;29.73
60087;BME280;45960;53.630;55.972;2023-04-21T04:32:25;100330.16;;;15.28;29.65
60087;BME280;45960;53.630;55.972;2023-04-21T04:33:29;100329.38;;;15.37;29.34
60087;BME280;45960;53.630;55.972;2023-04-21T04:34:30;100333.00;;;15.48;29.46
60087;BME280;45960;53.630;55.972;2023-04-21T04:35:32;100341.16;;;15.57;29.09
60087;BME280;45960;53.630;55.972;2023-04-21T04:36:33;100330.44;;;15.67;29.14
60087;BME280;45960;53.630;55.972;2023-04-21T04:37:38;100338.75;;;15.75;29.28
60087;BME280;45960;53.630;55.972;2023-04-21T04:38:39;100329.75;;;15.86;28.89
60087;BME280;45960;53.630;55.972;2023-04-21T04:39:41;100334.22;;;15.97;28.96
60087;BME280;45960;53.630;55.972;2023-04-21T04:40:42;100325.88;;;16.00;28.82
60087;BME280;45960;53.630;55.972;2023-04-21T04:41:43;100332.41;;;16.07;28.80
60087;BME280;45960;53.630;55.972;2023-04-21T04:42:44;100330.63;;;16.17;28.64
60087;BME280;45960;53.630;55.972;2023-04-21T04:43:46;100329.81;;;16.26;28.66
60087;BME280;45960;53.630;55.972;2023-04-21T04:44:47;100331.25;;;16.30;28.56
60087;BME280;45960;53.630;55.972;2023-04-21T04:45:48;100317.22;;;16.37;28.47
60087;BME280;45960;53.630;55.972;2023-04-21T04:46:50;100322.06;;;16.43;28.25
60087;BME280;45960;53.630;55.972;2023-04-21T04:47:52;100326.06;;;16.48;28.29
60087;BME280;45960;53.630;55.972;2023-04-21T04:48:53;100328.63;;;16.50;28.27
60087;BME280;45960;53.630;55.972;2023-04-21T04:49:54;100326.06;;;16.48;28.25
60087;BME280;45960;53.630;55.972;2023-04-21T04:50:55;100331.75;;;16.55;28.27
60087;BME280;45960;53.630;55.972;2023-04-21T04:51:56;100333.19;;;16.59;28.19
60087;BME280;45960;53.630;55.972;2023-04-21T04:52:58;100301.94;;;16.47;27.98
60087;BME280;45960;53.630;55.972;2023-04-21T04:53:59;100335.59;;;16.62;27.92
60087;BME280;45960;53.630;55.972;2023-04-21T04:55:00;100332.91;;;16.62;28.04
60087;BME280;45960;53.630;55.972;2023-04-21T04:56:01;100325.25;;;16.67;27.98
60087;BME280;45960;53.630;55.972;2023-04-21T04:57:03;100326.41;;;16.74;27.94
60087;BME280;45960;53.630;55.972;2023-04-21T04:58:04;100327.03;;;16.78;28.03
60087;BME280;45960;53.630;55.972;2023-04-21T04:59:05;100322.19;;;16.82;27.88
60087;BME280;45960;53.630;55.972;2023-04-21T05:00:07;100329.59;;;16.89;27.75
60087;BME280;45960;53.630;55.972;2023-04-21T05:02:13;100327.91;;;16.98;27.53
60087;BME280;45960;53.630;55.972;2023-04-21T05:03:14;100326.78;;;17.00;27.65
60087;BME280;45960;53.630;55.972;2023-04-21T05:04:15;100321.78;;;16.96;27.37
60087;BME280;45960;53.630;55.972;2023-04-21T05:05:16;100321.06;;;16.94;27.48
60087;BME280;45960;53.630;55.972;2023-04-21T05:06:18;100322.81;;;16.95;27.51
60087;BME280;45960;53.630;55.972;2023-04-21T05:07:18;100321.38;;;17.00;27.61
60087;BME280;45960;53.630;55.972;2023-04-21T05:08:20;100319.81;;;17.08;27.39
60087;BME280;45960;53.630;55.972;2023-04-21T05:09:21;100319.13;;;17.15;27.44
60087;BME280;45960;53.630;55.972;2023-04-21T05:10:22;100319.97;;;17.26;27.25
60087;BME280;45960;53.630;55.972;2023-04-21T05:11:23;100317.97;;;17.37;27.27
60087;BME280;45960;53.630;55.972;2023-04-21T05:12:25;100325.63;;;17.52;27.04
60087;BME280;45960;53.630;55.972;2023-04-21T05:13:26;100314.81;;;17.61;26.89
60087;BME280;45960;53.630;55.972;2023-04-21T05:14:27;100323.63;;;17.63;26.76
60087;BME280;45960;53.630;55.972;2023-04-21T05:15:28;100321.66;;;17.65;26.92
60087;BME280;45960;53.630;55.972;2023-04-21T05:16:29;100310.53;;;17.68;26.70
60087;BME280;45960;53.630;55.972;2023-04-21T05:17:32;100313.66;;;17.74;26.70
60087;BME280;45960;53.630;55.972;2023-04-21T05:18:33;100315.22;;;17.76;26.51
60087;BME280;45960;53.630;55.972;2023-04-21T05:19:35;100319.06;;;17.74;26.54
60087;BME280;45960;53.630;55.972;2023-04-21T05:20:40;100322.50;;;17.76;26.58
60087;BME280;45960;53.630;55.972;2023-04-21T05:21:41;100319.91;;;17.74;26.52